Time;durP1;ratioP1;P1;durP2;ratioP2;P2;SDS_P1;SDS_P2;PMS_P1;PMS_P2;Temp;Humidity;BMP_temperature;BMP_pressure;BME280_temperature;BME280_humidity;BME280_pressure;Samples;Min_cycle;Max_cycle;Signal;HPM_P1;HPM_P2
2022/12/13 00:00:54;;;;;;;11.07;4.93;;;;;;;;;;10456554;28;20222;-69
2022/12/13 00:05:55;;;;;;;10.93;5.00;;;;;;;;;;10471054;28;20767;-70
2022/12/13 00:11:05;;;;;;;14.70;5.30;;;;;;;;;;10460560;28;20673;-70
2022/12/13 00:16:07;;;;;;;11.37;5.10;;;;;;;;;;10465474;28;20589;-70
2022/12/13 00:21:10;;;;;;;7.53;4.90;;;;;;;;;;10464821;28;20222;-69
2022/12/13 00:26:13;;;;;;;7.87;5.23;;;;;;;;;;10458878;28;20245;-70
2022/12/13 00:31:15;;;;;;;8.43;4.93;;;;;;;;;;10461735;28;20209;-70
2022/12/13 00:36:16;;;;;;;10.73;4.33;;;;;;;;;;10458534;28;20724;-71
2022/12/13 00:41:19;;;;;;;12.70;6.37;;;;;;;;;;10459643;28;20377;-70
2022/12/13 00:46:23;;;;;;;7.87;4.60;;;;;;;;;;10458953;28;20288;-70
2022/12/13 00:51:25;;;;;;;10.63;4.90;;;;;;;;;;10459327;28;20823;-69
2022/12/13 00:56:27;;;;;;;10.37;4.57;;;;;;;;;;10472132;28;20268;-70
2022/12/13 01:01:30;;;;;;;13.17;4.83;;;;;;;;;;10464880;28;20222;-70
2022/12/13 01:06:35;;;;;;;7.57;4.83;;;;;;;;;;10473494;28;20222;-70
2022/12/13 01:11:37;;;;;;;8.23;4.30;;;;;;;;;;10460152;28;20214;-70
2022/12/13 01:16:38;;;;;;;10.10;4.63;;;;;;;;;;10459980;28;20732;-70
2022/12/13 01:21:40;;;;;;;9.67;5.10;;;;;;;;;;10460009;28;20645;-69
2022/12/13 01:26:41;;;;;;;7.93;4.70;;;;;;;;;;10460248;28;20259;-69
2022/12/13 01:31:42;;;;;;;10.93;4.93;;;;;;;;;;10464357;28;20245;-70
2022/12/13 01:36:44;;;;;;;6.20;3.10;;;;;;;;;;10459135;28;20709;-70
2022/12/13 01:41:50;;;;;;;5.20;4.13;;;;;;;;;;10460728;28;20246;-70
2022/12/13 01:46:51;;;;;;;7.83;3.93;;;;;;;;;;10461027;28;20241;-71
2022/12/13 01:51:55;;;;;;;13.57;4.53;;;;;;;;;;10459627;28;20210;-70
2022/12/13 01:56:57;;;;;;;9.13;4.50;;;;;;;;;;10457795;28;20202;-70
2022/12/13 02:01:58;;;;;;;9.33;3.17;;;;;;;;;;10452665;28;20214;-70
2022/12/13 02:06:59;;;;;;;11.87;3.87;;;;;;;;;;10457272;28;20699;-70
2022/12/13 02:12:02;;;;;;;9.67;4.67;;;;;;;;;;10453978;28;20221;-70
2022/12/13 02:17:09;;;;;;;9.80;4.37;;;;;;;;;;10459457;28;20218;-71
2022/12/13 02:22:29;;;;;;;10.93;4.23;;;;;;;;;;10460421;28;20237;-70
2022/12/13 02:27:50;;;;;;;7.50;3.70;;;;;;;;;;10456177;28;20226;-70
2022/12/13 02:32:57;;;;;;;6.33;3.50;;;;;;;;;;10451531;28;20853;-70
2022/12/13 02:38:17;;;;;;;8.43;4.50;;;;;;;;;;10467050;28;20249;-71
2022/12/13 02:43:44;;;;;;;5.00;3.70;;;;;;;;;;10451558;28;20221;-70
2022/12/13 02:48:46;;;;;;;7.87;4.40;;;;;;;;;;10415863;28;20642;-71
2022/12/13 02:53:48;;;;;;;12.73;4.80;;;;;;;;;;10454824;28;20721;-71
2022/12/13 02:58:50;;;;;;;10.17;4.40;;;;;;;;;;10445184;28;20690;-70
2022/12/13 03:04:10;;;;;;;10.00;4.17;;;;;;;;;;10455268;28;20210;-71
2022/12/13 03:09:14;;;;;;;7.93;4.60;;;;;;;;;;10453572;28;20682;-70
2022/12/13 03:14:19;;;;;;;8.67;5.73;;;;;;;;;;10437742;28;20672;-71
2022/12/13 03:19:20;;;;;;;8.53;4.30;;;;;;;;;;10453790;28;20241;-71
2022/12/13 03:24:21;;;;;;;13.70;5.53;;;;;;;;;;10453445;28;20724;-70
2022/12/13 03:29:22;;;;;;;12.17;4.70;;;;;;;;;;10457139;28;20221;-72
2022/12/13 03:34:23;;;;;;;8.13;4.50;;;;;;;;;;10460341;28;20280;-71
2022/12/13 03:39:24;;;;;;;10.13;4.70;;;;;;;;;;10455708;28;21309;-71
2022/12/13 03:44:25;;;;;;;7.17;3.43;;;;;;;;;;10452429;28;20955;-72
2022/12/13 03:49:26;;;;;;;11.13;4.73;;;;;;;;;;10461064;28;20308;-72
2022/12/13 03:54:27;;;;;;;8.57;4.67;;;;;;;;;;10458570;28;20680;-71
2022/12/13 03:59:29;;;;;;;8.73;4.07;;;;;;;;;;10457322;28;20222;-72
2022/12/13 04:04:30;;;;;;;9.60;4.00;;;;;;;;;;10458506;28;20206;-71
2022/12/13 04:09:31;;;;;;;5.60;3.87;;;;;;;;;;10457064;28;20304;-71
2022/12/13 04:14:32;;;;;;;7.13;4.17;;;;;;;;;;10476269;28;20749;-72
2022/12/13 04:19:33;;;;;;;11.50;4.23;;;;;;;;;;10464200;28;20588;-72
2022/12/13 04:24:34;;;;;;;6.10;4.03;;;;;;;;;;10456558;28;20542;-73
2022/12/13 04:29:35;;;;;;;10.00;4.47;;;;;;;;;;10459947;28;20253;-73
2022/12/13 04:34:37;;;;;;;5.77;4.20;;;;;;;;;;10459317;28;20715;-72
2022/12/13 04:39:38;;;;;;;7.83;4.47;;;;;;;;;;10458985;28;20256;-73
2022/12/13 04:44:39;;;;;;;10.30;3.67;;;;;;;;;;10460323;28;20609;-72
2022/12/13 04:49:40;;;;;;;6.73;2.93;;;;;;;;;;10461773;28;20215;-72
2022/12/13 04:54:41;;;;;;;6.43;4.10;;;;;;;;;;10459438;28;20234;-72
2022/12/13 04:59:45;;;;;;;10.63;5.33;;;;;;;;;;10462136;28;20218;-72
2022/12/13 05:04:46;;;;;;;8.67;4.10;;;;;;;;;;10460435;28;20722;-72
2022/12/13 05:09:47;;;;;;;9.20;3.80;;;;;;;;;;10460613;28;20713;-72
2022/12/13 05:14:49;;;;;;;5.60;4.23;;;;;;;;;;10454309;28;20689;-72
2022/12/13 05:19:50;;;;;;;8.10;3.93;;;;;;;;;;10456585;28;20199;-72
2022/12/13 05:24:51;;;;;;;10.10;3.73;;;;;;;;;;10457349;28;20667;-72
2022/12/13 05:29:55;;;;;;;11.33;4.13;;;;;;;;;;10457348;28;20241;-72
2022/12/13 05:34:56;;;;;;;10.23;3.33;;;;;;;;;;10461938;28;20198;-72
2022/12/13 05:39:57;;;;;;;6.57;3.27;;;;;;;;;;10458705;28;20214;-72
2022/12/13 05:44:58;;;;;;;5.50;3.97;;;;;;;;;;10457186;28;21192;-73
2022/12/13 05:50:00;;;;;;;8.97;3.83;;;;;;;;;;10452889;28;20241;-73
2022/12/13 05:55:01;;;;;;;4.90;3.30;;;;;;;;;;10451857;28;20262;-72
2022/12/13 06:00:03;;;;;;;7.20;3.83;;;;;;;;;;10456010;28;20638;-70
2022/12/13 06:05:13;;;;;;;8.23;4.27;;;;;;;;;;10449385;28;20214;-71
2022/12/13 06:10:14;;;;;;;6.80;4.30;;;;;;;;;;10451401;28;20205;-72
2022/12/13 06:15:15;;;;;;;9.40;5.07;;;;;;;;;;10454879;28;20198;-72
2022/12/13 06:20:17;;;;;;;4.37;3.67;;;;;;;;;;10466533;28;20232;-73
2022/12/13 06:25:18;;;;;;;13.80;4.43;;;;;;;;;;10450025;28;20226;-72
2022/12/13 06:30:19;;;;;;;9.10;3.93;;;;;;;;;;10451811;28;20183;-73
2022/12/13 06:35:20;;;;;;;8.20;3.83;;;;;;;;;;10458599;28;20187;-73
2022/12/13 06:40:21;;;;;;;9.07;4.47;;;;;;;;;;10459214;28;20222;-72
2022/12/13 06:45:22;;;;;;;8.07;4.20;;;;;;;;;;10467376;28;20703;-72
2022/12/13 06:50:23;;;;;;;12.37;4.93;;;;;;;;;;10467693;28;20221;-75
2022/12/13 06:55:25;;;;;;;4.80;2.77;;;;;;;;;;10459637;28;20202;-74
2022/12/13 07:00:26;;;;;;;9.47;4.13;;;;;;;;;;10450090;28;20221;-73
2022/12/13 07:05:27;;;;;;;6.07;3.10;;;;;;;;;;10459898;28;20226;-73
2022/12/13 07:10:28;;;;;;;12.90;4.47;;;;;;;;;;10452000;28;20214;-74
2022/12/13 07:15:32;;;;;;;8.43;5.10;;;;;;;;;;10457129;28;20705;-74
2022/12/13 07:20:33;;;;;;;7.93;4.30;;;;;;;;;;10459392;28;20202;-74
2022/12/13 07:25:34;;;;;;;9.90;4.70;;;;;;;;;;10466778;28;20229;-74
2022/12/13 07:30:37;;;;;;;14.20;5.37;;;;;;;;;;10470255;28;20577;-74
2022/12/13 07:35:38;;;;;;;5.37;3.17;;;;;;;;;;10473017;28;20215;-74
2022/12/13 07:40:40;;;;;;;6.57;4.17;;;;;;;;;;10475344;28;20268;-74
2022/12/13 07:45:41;;;;;;;11.17;4.43;;;;;;;;;;10469542;28;20274;-74
2022/12/13 07:50:42;;;;;;;15.33;6.73;;;;;;;;;;10468148;28;20215;-74
2022/12/13 07:55:43;;;;;;;12.00;5.07;;;;;;;;;;10467976;28;20218;-75
2022/12/13 08:00:45;;;;;;;12.10;5.97;;;;;;;;;;10467777;28;20214;-72
2022/12/13 08:05:46;;;;;;;13.63;6.47;;;;;;;;;;10466023;28;20573;-73
2022/12/13 08:10:47;;;;;;;15.70;7.00;;;;;;;;;;10469144;28;20225;-73
2022/12/13 08:15:48;;;;;;;13.83;6.23;;;;;;;;;;10473178;28;20781;-74
2022/12/13 08:20:49;;;;;;;16.00;7.17;;;;;;;;;;10474553;28;20214;-73
2022/12/13 08:25:51;;;;;;;12.90;7.03;;;;;;;;;;10473178;28;20241;-73
2022/12/13 08:30:52;;;;;;;17.07;7.63;;;;;;;;;;10464836;28;20211;-73
2022/12/13 08:35:54;;;;;;;20.97;7.37;;;;;;;;;;10446296;28;20214;-77
2022/12/13 08:40:58;;;;;;;17.00;7.43;;;;;;;;;;10462632;28;20218;-75
2022/12/13 08:45:59;;;;;;;18.57;6.80;;;;;;;;;;10462890;28;20233;-75
2022/12/13 08:51:02;;;;;;;12.27;6.33;;;;;;;;;;10465582;28;20209;-75
2022/12/13 08:56:04;;;;;;;12.80;5.37;;;;;;;;;;10464521;28;20225;-75
2022/12/13 09:01:08;;;;;;;14.77;6.87;;;;;;;;;;10462440;28;20218;-75
2022/12/13 09:06:11;;;;;;;11.20;5.93;;;;;;;;;;10468569;28;20257;-76
2022/12/13 09:11:12;;;;;;;14.83;6.77;;;;;;;;;;10466904;28;20210;-77
2022/12/13 09:16:15;;;;;;;16.93;8.80;;;;;;;;;;10465322;28;20217;-77
2022/12/13 09:21:16;;;;;;;11.90;7.13;;;;;;;;;;10465370;28;20249;-77
2022/12/13 09:26:17;;;;;;;17.00;7.43;;;;;;;;;;10462311;28;20250;-76
2022/12/13 09:31:19;;;;;;;16.73;9.20;;;;;;;;;;10426353;28;20216;-79
2022/12/13 09:36:20;;;;;;;21.83;7.30;;;;;;;;;;10432794;28;20208;-78
2022/12/13 09:41:25;;;;;;;15.10;7.10;;;;;;;;;;10461226;28;20306;-76
2022/12/13 09:46:31;;;;;;;21.73;7.77;;;;;;;;;;10430126;28;20268;-79
2022/12/13 09:51:32;;;;;;;16.40;7.63;;;;;;;;;;10422417;28;20237;-77
2022/12/13 09:56:34;;;;;;;18.47;8.10;;;;;;;;;;10422896;28;20301;-76
2022/12/13 10:01:35;;;;;;;12.80;7.07;;;;;;;;;;10425550;28;20219;-76
2022/12/13 10:06:36;;;;;;;16.20;8.73;;;;;;;;;;10432837;28;20222;-74
2022/12/13 10:11:46;;;;;;;22.53;9.93;;;;;;;;;;10419063;28;20607;-73
2022/12/13 10:16:59;;;;;;;20.07;9.63;;;;;;;;;;10412803;28;20216;-72
2022/12/13 10:22:01;;;;;;;18.97;8.97;;;;;;;;;;10449309;28;20230;-72
2022/12/13 10:27:13;;;;;;;13.07;8.17;;;;;;;;;;10453406;28;20230;-70
2022/12/13 10:32:14;;;;;;;16.93;8.60;;;;;;;;;;10446583;28;20225;-70
2022/12/13 10:37:29;;;;;;;15.93;8.20;;;;;;;;;;10458366;28;20619;-70
2022/12/13 10:42:30;;;;;;;13.37;7.97;;;;;;;;;;10460314;28;20319;-73
2022/12/13 10:47:31;;;;;;;11.43;6.70;;;;;;;;;;10460200;28;20360;-73
2022/12/13 10:52:34;;;;;;;16.83;9.68;;;;;;;;;;10464222;28;20217;-72
2022/12/13 10:57:35;;;;;;;10.73;7.97;;;;;;;;;;10456961;28;20213;-73
2022/12/13 11:02:37;;;;;;;13.13;7.05;;;;;;;;;;10462918;28;20232;-72
2022/12/13 11:07:38;;;;;;;14.95;8.77;;;;;;;;;;10461774;28;20253;-72
2022/12/13 11:12:40;;;;;;;21.45;10.63;;;;;;;;;;10462613;28;20226;-73
2022/12/13 11:17:52;;;;;;;10.57;6.40;;;;;;;;;;10447270;28;20759;-72
2022/12/13 11:23:21;;;;;;;11.23;6.22;;;;;;;;;;10473535;28;20261;-73
2022/12/13 11:28:25;;;;;;;13.32;7.30;;;;;;;;;;10446443;28;20727;-72
2022/12/13 11:33:37;;;;;;;10.07;6.97;;;;;;;;;;10464913;28;20214;-73
2022/12/13 11:38:54;;;;;;;14.55;7.93;;;;;;;;;;10464953;28;20261;-72
2022/12/13 11:43:57;;;;;;;11.23;6.85;;;;;;;;;;10448174;28;20593;-73
2022/12/13 11:49:01;;;;;;;12.80;7.85;;;;;;;;;;10446462;28;20710;-72
2022/12/13 11:54:05;;;;;;;11.05;6.18;;;;;;;;;;10456505;28;20222;-71
2022/12/13 11:59:25;;;;;;;11.95;6.90;;;;;;;;;;10458712;28;20216;-72
2022/12/13 12:04:34;;;;;;;12.85;7.55;;;;;;;;;;10443697;28;20221;-71
2022/12/13 12:09:37;;;;;;;15.05;6.90;;;;;;;;;;10441743;28;20217;-71
2022/12/13 12:14:42;;;;;;;14.90;8.02;;;;;;;;;;10463634;28;20333;-71
2022/12/13 12:19:45;;;;;;;15.55;7.30;;;;;;;;;;10467360;28;20211;-71
2022/12/13 12:24:53;;;;;;;17.85;7.63;;;;;;;;;;10462590;28;20233;-71
2022/12/13 12:29:58;;;;;;;10.98;6.70;;;;;;;;;;10463207;28;20236;-71
2022/12/13 12:35:02;;;;;;;11.32;7.18;;;;;;;;;;10466538;28;20206;-71
2022/12/13 12:40:16;;;;;;;9.85;6.97;;;;;;;;;;10450707;28;20221;-71
2022/12/13 12:45:36;;;;;;;9.55;5.93;;;;;;;;;;10468377;28;20579;-72
2022/12/13 12:50:37;;;;;;;6.40;4.25;;;;;;;;;;10463601;28;20295;-71
2022/12/13 12:55:57;;;;;;;9.88;5.53;;;;;;;;;;10467327;28;20202;-72
2022/12/13 13:01:08;;;;;;;8.98;5.95;;;;;;;;;;10463781;28;20220;-72
2022/12/13 13:06:12;;;;;;;8.43;5.20;;;;;;;;;;10463008;28;20233;-72
2022/12/13 13:11:13;;;;;;;9.30;6.07;;;;;;;;;;10466126;28;20225;-73
2022/12/13 13:16:26;;;;;;;7.95;5.72;;;;;;;;;;10462567;28;20304;-73
2022/12/13 13:21:30;;;;;;;8.63;5.57;;;;;;;;;;10455571;28;20233;-73
2022/12/13 13:26:33;;;;;;;7.60;5.47;;;;;;;;;;10467844;28;20316;-73
2022/12/13 13:31:53;;;;;;;7.82;5.40;;;;;;;;;;10463760;28;20213;-73
2022/12/13 13:36:55;;;;;;;9.85;5.15;;;;;;;;;;10465880;28;20259;-74
2022/12/13 13:42:17;;;;;;;9.90;5.73;;;;;;;;;;10468366;28;20264;-74
2022/12/13 13:47:21;;;;;;;14.30;5.40;;;;;;;;;;10464768;28;20698;-72
2022/12/13 13:52:24;;;;;;;12.10;5.83;;;;;;;;;;10462466;28;20724;-74
2022/12/13 13:57:31;;;;;;;13.47;6.63;;;;;;;;;;10464403;28;20241;-74
2022/12/13 14:02:41;;;;;;;12.00;5.83;;;;;;;;;;10464123;28;20214;-75
2022/12/13 14:08:12;;;;;;;15.13;6.20;;;;;;;;;;10470161;28;20388;-76
2022/12/13 14:13:32;;;;;;;13.37;6.73;;;;;;;;;;10449191;28;20210;-75
2022/12/13 14:18:57;;;;;;;6.77;4.60;;;;;;;;;;10465504;28;20266;-77
2022/12/13 14:24:21;;;;;;;10.17;5.87;;;;;;;;;;10463894;28;20235;-78
2022/12/13 14:29:29;;;;;;;14.33;5.97;;;;;;;;;;10464666;28;20601;-77
2022/12/13 14:34:32;;;;;;;9.53;5.83;;;;;;;;;;10459573;28;20641;-80
2022/12/13 14:39:33;;;;;;;18.87;7.07;;;;;;;;;;10461343;28;20976;-78
2022/12/13 14:44:34;;;;;;;15.73;5.93;;;;;;;;;;10459964;28;20205;-74
2022/12/13 14:49:38;;;;;;;15.20;6.37;;;;;;;;;;10462414;28;20693;-77
2022/12/13 14:54:39;;;;;;;6.70;5.40;;;;;;;;;;10458717;28;20222;-75
2022/12/13 14:59:44;;;;;;;11.37;5.87;;;;;;;;;;10461248;28;20220;-77
2022/12/13 15:04:46;;;;;;;16.53;7.87;;;;;;;;;;10461516;28;20246;-77
2022/12/13 15:09:50;;;;;;;14.20;7.23;;;;;;;;;;10461034;28;20237;-77
2022/12/13 15:14:57;;;;;;;7.67;5.73;;;;;;;;;;10464780;28;20300;-76
2022/12/13 15:19:59;;;;;;;10.63;6.50;;;;;;;;;;10465688;28;20213;-75
2022/12/13 15:25:01;;;;;;;18.53;8.37;;;;;;;;;;10456435;28;20317;-77
2022/12/13 15:30:07;;;;;;;12.37;7.03;;;;;;;;;;10462250;28;20254;-76
2022/12/13 15:35:16;;;;;;;13.57;6.67;;;;;;;;;;10466183;28;20350;-77
2022/12/13 15:40:17;;;;;;;13.53;7.87;;;;;;;;;;10458819;28;20198;-78
2022/12/13 15:45:20;;;;;;;9.67;5.80;;;;;;;;;;10464466;28;20208;-76
2022/12/13 15:50:29;;;;;;;11.70;6.90;;;;;;;;;;10461705;28;20180;-74
2022/12/13 15:55:35;;;;;;;16.87;7.47;;;;;;;;;;10477362;28;20237;-76
2022/12/13 16:00:36;;;;;;;19.07;8.37;;;;;;;;;;10453312;28;20297;-74
2022/12/13 16:05:47;;;;;;;15.57;7.63;;;;;;;;;;10446499;28;20790;-74
2022/12/13 16:10:49;;;;;;;16.03;8.43;;;;;;;;;;10445413;28;20202;-74
2022/12/13 16:15:51;;;;;;;19.03;7.53;;;;;;;;;;10460781;28;20244;-73
2022/12/13 16:20:52;;;;;;;20.83;8.33;;;;;;;;;;10480827;28;20221;-73
2022/12/13 16:25:54;;;;;;;14.10;7.67;;;;;;;;;;10441988;28;20210;-77
2022/12/13 16:31:17;;;;;;;13.20;6.70;;;;;;;;;;10462925;28;20221;-80
2022/12/13 16:36:19;;;;;;;23.83;8.83;;;;;;;;;;10465259;28;20329;-80
2022/12/13 16:41:20;;;;;;;19.90;8.37;;;;;;;;;;10460214;28;20244;-85
2022/12/13 16:46:22;;;;;;;15.37;8.43;;;;;;;;;;10461145;28;20237;-86
2022/12/13 16:51:23;;;;;;;17.50;8.40;;;;;;;;;;10472959;28;20206;-82
2022/12/13 16:56:24;;;;;;;17.07;7.30;;;;;;;;;;10461819;28;20209;-84
2022/12/13 17:01:28;;;;;;;20.57;8.40;;;;;;;;;;10472911;28;20297;-72
2022/12/13 17:06:29;;;;;;;14.97;7.97;;;;;;;;;;10471574;28;20225;-71
2022/12/13 17:11:34;;;;;;;19.77;9.57;;;;;;;;;;10467043;28;20241;-71
2022/12/13 17:16:35;;;;;;;22.63;8.90;;;;;;;;;;10467850;28;20252;-71
2022/12/13 17:21:36;;;;;;;20.43;8.77;;;;;;;;;;10466101;28;20216;-72
2022/12/13 17:26:37;;;;;;;20.87;9.40;;;;;;;;;;10464246;28;20670;-71
2022/12/13 17:31:38;;;;;;;16.37;8.17;;;;;;;;;;10465613;28;20620;-72
2022/12/13 17:36:39;;;;;;;14.07;7.80;;;;;;;;;;10464967;28;20881;-72
2022/12/13 17:41:40;;;;;;;19.63;9.13;;;;;;;;;;10465297;28;20828;-77
2022/12/13 17:46:42;;;;;;;22.13;8.10;;;;;;;;;;10459896;28;20214;-77
2022/12/13 17:51:43;;;;;;;15.77;8.67;;;;;;;;;;10466562;28;20210;-78
2022/12/13 17:56:44;;;;;;;20.10;9.10;;;;;;;;;;10465567;28;20713;-76
2022/12/13 18:01:45;;;;;;;20.43;8.87;;;;;;;;;;10469078;28;20211;-78
2022/12/13 18:06:46;;;;;;;17.93;8.70;;;;;;;;;;10465070;28;21104;-79
2022/12/13 18:11:48;;;;;;;19.87;9.30;;;;;;;;;;10475906;28;20242;-80
2022/12/13 18:16:49;;;;;;;14.67;8.47;;;;;;;;;;10468573;28;20256;-77
2022/12/13 18:21:50;;;;;;;19.17;9.43;;;;;;;;;;10472369;28;20210;-79
2022/12/13 18:26:51;;;;;;;26.23;8.70;;;;;;;;;;10469017;28;20234;-74
2022/12/13 18:31:52;;;;;;;21.33;8.00;;;;;;;;;;10460185;28;20206;-71
2022/12/13 18:36:53;;;;;;;16.57;8.13;;;;;;;;;;10461724;28;20215;-72
2022/12/13 18:41:54;;;;;;;18.77;9.17;;;;;;;;;;10455408;28;20222;-73
2022/12/13 18:46:55;;;;;;;15.67;7.87;;;;;;;;;;10458091;28;20222;-72
2022/12/13 18:51:56;;;;;;;15.20;8.03;;;;;;;;;;10465475;28;20205;-77
2022/12/13 18:56:57;;;;;;;22.47;9.73;;;;;;;;;;10460246;28;20269;-78
2022/12/13 19:01:59;;;;;;;13.40;7.67;;;;;;;;;;10464402;28;20233;-76
2022/12/13 19:07:00;;;;;;;26.47;10.90;;;;;;;;;;10459304;28;20210;-74
2022/12/13 19:12:01;;;;;;;18.90;8.47;;;;;;;;;;10451573;28;20210;-76
2022/12/13 19:17:02;;;;;;;21.37;8.63;;;;;;;;;;10466364;28;20979;-78
2022/12/13 19:22:04;;;;;;;16.73;8.27;;;;;;;;;;10476080;28;21099;-76
2022/12/13 19:27:05;;;;;;;16.70;8.03;;;;;;;;;;10480000;28;20213;-78
2022/12/13 19:32:06;;;;;;;23.87;8.00;;;;;;;;;;10471251;28;20218;-77
2022/12/13 19:37:07;;;;;;;21.33;7.77;;;;;;;;;;10477299;28;20214;-84
2022/12/13 19:42:09;;;;;;;14.60;7.20;;;;;;;;;;10480030;28;20322;-86
2022/12/13 19:47:10;;;;;;;15.43;7.37;;;;;;;;;;10478565;28;20709;-82
2022/12/13 19:52:11;;;;;;;24.17;8.20;;;;;;;;;;10474068;28;20206;-87
2022/12/13 19:57:13;;;;;;;19.60;7.33;;;;;;;;;;10474962;28;20210;-87
2022/12/13 20:02:14;;;;;;;10.53;6.50;;;;;;;;;;10466867;28;20329;-86
2022/12/13 20:07:15;;;;;;;14.00;7.07;;;;;;;;;;10464450;28;20222;-86
2022/12/13 20:12:16;;;;;;;12.90;6.77;;;;;;;;;;10463517;28;20210;-85
2022/12/13 20:17:18;;;;;;;13.93;8.23;;;;;;;;;;10461119;28;20222;-86
2022/12/13 20:22:19;;;;;;;11.70;6.73;;;;;;;;;;10460487;28;20225;-79
2022/12/13 20:27:20;;;;;;;18.53;8.43;;;;;;;;;;10467690;28;20308;-80
2022/12/13 20:32:21;;;;;;;16.73;7.60;;;;;;;;;;10460598;28;20711;-79
2022/12/13 20:37:22;;;;;;;16.13;7.03;;;;;;;;;;10463878;28;20313;-84
2022/12/13 20:42:23;;;;;;;16.60;7.80;;;;;;;;;;10456760;28;20257;-77
2022/12/13 20:47:25;;;;;;;24.43;8.90;;;;;;;;;;10457384;28;20221;-71
2022/12/13 20:52:26;;;;;;;17.87;7.47;;;;;;;;;;10455563;28;20218;-76
2022/12/13 20:57:27;;;;;;;17.67;7.93;;;;;;;;;;10449630;28;20210;-77
2022/12/13 21:02:28;;;;;;;11.47;6.77;;;;;;;;;;10455382;28;21220;-75
2022/12/13 21:12:49;;;;;;;24.03;7.97;;;;;;;;;;10457272;28;20215;-69
2022/12/13 21:17:50;;;;;;;18.27;8.23;;;;;;;;;;10449966;28;20249;-67
2022/12/13 21:22:51;;;;;;;19.27;8.53;;;;;;;;;;10447915;28;20778;-71
2022/12/13 21:27:52;;;;;;;20.93;9.57;;;;;;;;;;10460647;28;20330;-70
2022/12/13 21:32:53;;;;;;;40.47;13.17;;;;;;;;;;10461329;28;20944;-71
2022/12/13 21:37:54;;;;;;;25.37;10.80;;;;;;;;;;10461265;28;20660;-69
2022/12/13 21:42:55;;;;;;;23.10;9.33;;;;;;;;;;10441989;28;20305;-70
2022/12/13 21:47:56;;;;;;;13.47;7.77;;;;;;;;;;10456183;28;20221;-70
2022/12/13 21:52:57;;;;;;;16.87;8.37;;;;;;;;;;10447381;28;20611;-70
2022/12/13 22:03:29;;;;;;;16.93;7.30;;;;;;;;;;10382379;28;20212;-70
2022/12/13 22:08:30;;;;;;;37.57;7.87;;;;;;;;;;10459131;28;20694;-70
2022/12/13 22:13:31;;;;;;;19.13;7.70;;;;;;;;;;10465919;28;20218;-68
2022/12/13 22:18:32;;;;;;;16.17;6.80;;;;;;;;;;10459333;28;20305;-69
2022/12/13 22:23:33;;;;;;;24.10;7.43;;;;;;;;;;10460585;28;21755;-70
2022/12/13 22:28:35;;;;;;;23.23;6.47;;;;;;;;;;10460681;28;20220;-69
2022/12/13 22:33:36;;;;;;;22.43;6.93;;;;;;;;;;10454696;28;20209;-70
2022/12/13 22:38:38;;;;;;;25.80;8.77;;;;;;;;;;10456743;28;20226;-70
2022/12/13 22:43:39;;;;;;;13.23;6.40;;;;;;;;;;10453669;28;20605;-70
2022/12/13 22:48:41;;;;;;;14.60;6.80;;;;;;;;;;10454500;28;20636;-70
2022/12/13 22:53:43;;;;;;;15.70;7.63;;;;;;;;;;10457092;28;20211;-69
2022/12/13 22:58:45;;;;;;;13.57;7.63;;;;;;;;;;10457014;28;20249;-70
2022/12/13 23:03:46;;;;;;;14.47;7.00;;;;;;;;;;10455824;28;20214;-69
2022/12/13 23:08:52;;;;;;;16.13;6.63;;;;;;;;;;10452172;28;20683;-68
2022/12/13 23:13:54;;;;;;;16.43;7.13;;;;;;;;;;10466876;28;20221;-69
2022/12/13 23:18:56;;;;;;;22.10;7.87;;;;;;;;;;10458624;28;20218;-69
2022/12/13 23:23:57;;;;;;;21.50;8.17;;;;;;;;;;10452534;28;20336;-70
2022/12/13 23:29:00;;;;;;;10.77;5.87;;;;;;;;;;10445665;28;20218;-70
2022/12/13 23:34:01;;;;;;;19.70;6.30;;;;;;;;;;10457685;28;20234;-70
2022/12/13 23:39:04;;;;;;;16.33;7.77;;;;;;;;;;10458291;28;20781;-69
2022/12/13 23:44:05;;;;;;;18.83;5.87;;;;;;;;;;10457375;28;20591;-69
2022/12/13 23:49:07;;;;;;;10.93;5.00;;;;;;;;;;10457409;28;20224;-70
2022/12/13 23:54:13;;;;;;;14.17;5.67;;;;;;;;;;10460351;28;20218;-69
2022/12/13 23:59:14;;;;;;;11.10;4.50;;;;;;;;;;10459092;28;20644;-69
